createdAt,value
2022-11-29T00:00:30.685Z,5.15
2022-11-29T00:02:57.633Z,5.25
2022-11-29T00:05:24.238Z,5.50
2022-11-29T00:07:52.189Z,6.07
2022-11-29T00:10:19.076Z,6.47
2022-11-29T00:12:46.916Z,6.82
2022-11-29T00:15:13.450Z,6.65
2022-11-29T00:17:40.019Z,6.55
2022-11-29T00:20:07.838Z,7.07
2022-11-29T00:22:34.429Z,6.25
2022-11-29T00:25:02.837Z,6.20
2022-11-29T00:27:29.586Z,5.20
2022-11-29T00:29:56.122Z,5.50
2022-11-29T00:32:22.783Z,5.10
2022-11-29T00:34:49.345Z,5.18
2022-11-29T00:37:15.934Z,5.95
2022-11-29T00:39:42.567Z,6.80
2022-11-29T00:42:10.496Z,6.43
2022-11-29T00:44:36.987Z,6.30
2022-11-29T00:47:03.624Z,6.10
2022-11-29T00:49:30.118Z,6.75
2022-11-29T00:51:56.710Z,8.10
2022-11-29T00:54:23.260Z,7.00
2022-11-29T00:56:49.834Z,7.30
2022-11-29T00:59:17.697Z,7.80
2022-11-29T01:01:44.529Z,7.75
2022-11-29T01:04:11.209Z,8.63
2022-11-29T01:06:37.818Z,7.07
2022-11-29T01:09:04.664Z,6.55
2022-11-29T01:11:31.241Z,6.75
2022-11-29T01:14:00.350Z,6.03
2022-11-29T01:16:29.689Z,6.70
2022-11-29T01:18:56.479Z,4.95
2022-11-29T01:21:24.541Z,5.53
2022-11-29T01:23:53.233Z,5.15
2022-11-29T01:26:22.210Z,5.28
2022-11-29T01:28:52.280Z,5.63
2022-11-29T01:31:21.277Z,6.00
2022-11-29T01:33:53.241Z,5.97
2022-11-29T01:36:19.809Z,6.38
2022-11-29T01:38:46.615Z,6.05
2022-11-29T01:41:16.382Z,6.18
2022-11-29T01:43:59.590Z,5.90
2022-11-29T01:46:27.618Z,6.00
2022-11-29T01:49:00.165Z,5.10
2022-11-29T01:51:28.202Z,5.15
2022-11-29T01:53:55.208Z,4.82
2022-11-29T01:56:23.421Z,5.38
2022-11-29T01:58:50.172Z,4.97
2022-11-29T02:01:16.898Z,5.78
2022-11-29T02:03:43.541Z,5.22
2022-11-29T02:06:11.559Z,5.30
2022-11-29T02:08:40.607Z,5.28
2022-11-29T02:11:37.701Z,4.93
2022-11-29T02:14:18.417Z,5.03
2022-11-29T02:16:56.881Z,5.22
2022-11-29T02:19:47.176Z,5.60
2022-11-29T02:22:20.679Z,4.80
2022-11-29T02:25:06.904Z,5.13
2022-11-29T02:28:07.520Z,6.15
2022-11-29T02:31:04.257Z,5.20
2022-11-29T02:33:53.456Z,5.47
2022-11-29T02:36:45.257Z,5.50
2022-11-29T02:39:39.249Z,5.05
2022-11-29T02:42:26.618Z,5.80
2022-11-29T02:45:07.926Z,5.70
2022-11-29T02:47:51.383Z,6.38
2022-11-29T02:50:29.806Z,6.18
2022-11-29T02:53:05.446Z,5.95
2022-11-29T02:55:37.268Z,5.95
2022-11-29T02:58:13.675Z,5.88
2022-11-29T03:00:50.006Z,5.38
2022-11-29T03:03:23.361Z,5.30
2022-11-29T03:05:57.415Z,5.22
2022-11-29T03:08:34.200Z,5.68
2022-11-29T03:11:09.265Z,5.18
2022-11-29T03:13:48.059Z,4.90
2022-11-29T03:16:28.342Z,5.07
2022-11-29T03:19:05.371Z,5.47
2022-11-29T03:21:41.038Z,5.57
2022-11-29T03:24:15.687Z,6.03
2022-11-29T03:26:45.455Z,5.32
2022-11-29T03:29:19.031Z,6.00
2022-11-29T03:31:52.571Z,6.25
2022-11-29T03:34:29.864Z,6.78
2022-11-29T03:37:06.107Z,5.40
2022-11-29T03:39:41.347Z,6.45
2022-11-29T03:42:13.119Z,5.88
2022-11-29T03:44:46.654Z,5.25
2022-11-29T03:47:17.924Z,6.07
2022-11-29T03:49:49.246Z,6.90
2022-11-29T03:52:21.288Z,5.95
2022-11-29T03:55:00.419Z,5.78
2022-11-29T03:57:34.180Z,6.25
2022-11-29T04:00:05.441Z,5.63
2022-11-29T04:03:11.200Z,5.60
2022-11-29T04:05:55.749Z,6.80
2022-11-29T04:08:59.678Z,8.07
2022-11-29T04:11:50.660Z,8.45
2022-11-29T04:14:31.107Z,8.10
2022-11-29T04:17:17.308Z,8.98
2022-11-29T04:20:05.304Z,7.55
2022-11-29T04:22:54.856Z,7.45
2022-11-29T04:25:34.421Z,8.00
2022-11-29T04:28:31.917Z,7.30
2022-11-29T04:31:09.357Z,7.38
2022-11-29T04:34:03.268Z,7.68
2022-11-29T04:36:48.712Z,7.28
2022-11-29T04:39:45.539Z,6.93
2022-11-29T04:42:35.976Z,6.15
2022-11-29T04:45:35.199Z,7.13
2022-11-29T04:48:21.032Z,6.65
2022-11-29T04:50:57.860Z,6.63
2022-11-29T04:53:34.868Z,6.65
2022-11-29T04:56:12.443Z,6.78
2022-11-29T04:58:44.528Z,6.30
2022-11-29T05:01:21.596Z,7.28
2022-11-29T05:03:57.236Z,6.78
2022-11-29T05:06:29.065Z,9.25
2022-11-29T05:09:07.074Z,7.10
2022-11-29T05:11:49.977Z,7.30
2022-11-29T05:14:25.112Z,6.35
2022-11-29T05:17:09.375Z,7.57
2022-11-29T05:19:56.200Z,7.45
2022-11-29T05:22:32.822Z,7.68
2022-11-29T05:25:18.868Z,7.15
2022-11-29T05:27:48.652Z,7.13
2022-11-29T05:30:17.935Z,7.03
2022-11-29T05:32:56.002Z,7.82
2022-11-29T05:35:51.581Z,7.22
2022-11-29T05:38:38.344Z,7.15
2022-11-29T05:41:20.173Z,6.95
2022-11-29T05:43:57.925Z,7.45
2022-11-29T05:46:30.839Z,7.15
2022-11-29T05:49:10.276Z,7.28
2022-11-29T05:51:45.713Z,7.18
2022-11-29T05:54:24.927Z,7.10
2022-11-29T05:57:05.123Z,7.40
2022-11-29T05:59:34.206Z,8.23
2022-11-29T06:02:09.728Z,7.70
2022-11-29T06:04:50.941Z,7.75
2022-11-29T06:07:22.911Z,8.10
2022-11-29T06:10:00.540Z,7.97
2022-11-29T06:12:28.701Z,7.60
2022-11-29T06:15:39.980Z,7.20
2022-11-29T06:18:27.214Z,8.70
2022-11-29T06:21:10.838Z,8.32
2022-11-29T06:23:54.639Z,9.10
2022-11-29T06:26:47.637Z,11.38
2022-11-29T06:29:23.754Z,9.60
2022-11-29T06:31:58.566Z,10.23
2022-11-29T06:34:33.001Z,10.50
2022-11-29T06:37:05.497Z,9.63
2022-11-29T06:39:32.689Z,10.30
2022-11-29T06:41:59.177Z,9.48
2022-11-29T06:44:26.348Z,10.05
2022-11-29T06:47:00.949Z,11.23
2022-11-29T06:49:30.018Z,10.88
2022-11-29T06:52:19.273Z,11.57
2022-11-29T06:54:58.256Z,10.90
2022-11-29T06:57:34.172Z,10.93
2022-11-29T07:00:06.096Z,11.30
2022-11-29T07:05:19.971Z,10.77
2022-11-29T07:07:48.977Z,10.90
2022-11-29T07:10:17.837Z,11.82
2022-11-29T07:12:45.872Z,11.55
2022-11-29T07:15:15.218Z,12.40
2022-11-29T07:17:53.767Z,10.57
2022-11-29T07:20:26.433Z,10.75
2022-11-29T07:23:09.357Z,11.73
2022-11-29T07:25:46.989Z,11.20
2022-11-29T07:28:27.148Z,11.40
2022-11-29T07:31:05.419Z,13.18
2022-11-29T07:33:43.270Z,10.77
2022-11-29T07:36:18.148Z,13.48
2022-11-29T07:38:57.028Z,12.98
2022-11-29T07:41:32.577Z,15.10
2022-11-29T07:44:08.444Z,12.38
2022-11-29T07:46:35.008Z,12.23
2022-11-29T07:49:01.516Z,11.23
2022-11-29T07:51:28.146Z,11.90
2022-11-29T07:53:56.036Z,11.63
2022-11-29T07:56:22.764Z,14.73
2022-11-29T07:58:49.364Z,15.25
2022-11-29T08:01:16.009Z,13.23
2022-11-29T08:03:42.539Z,13.85
2022-11-29T08:06:09.736Z,13.02
2022-11-29T08:08:40.704Z,21.95
2022-11-29T08:11:12.751Z,19.42
2022-11-29T08:13:39.341Z,19.40
2022-11-29T08:16:06.653Z,20.65
2022-11-29T08:18:33.256Z,16.55
2022-11-29T08:21:05.553Z,25.27
2022-11-29T08:23:32.087Z,16.40
2022-11-29T08:25:59.804Z,15.07
2022-11-29T08:28:27.761Z,16.80
2022-11-29T08:31:01.086Z,23.00
2022-11-29T08:33:27.786Z,16.23
2022-11-29T08:35:54.302Z,17.25
2022-11-29T08:38:20.897Z,19.08
2022-11-29T08:40:47.626Z,21.45
2022-11-29T08:43:14.255Z,20.90
2022-11-29T08:45:42.162Z,17.35
2022-11-29T08:48:08.749Z,18.13
2022-11-29T08:50:35.255Z,19.15
2022-11-29T08:53:01.898Z,19.63
2022-11-29T08:55:32.665Z,19.92
2022-11-29T08:58:04.381Z,22.55
2022-11-29T09:00:31.632Z,20.90
2022-11-29T09:03:01.100Z,21.38
2022-11-29T09:05:27.707Z,21.55
2022-11-29T09:07:54.254Z,21.90
2022-11-29T09:10:20.861Z,21.77
2022-11-29T09:12:47.374Z,21.48
2022-11-29T09:15:13.901Z,21.67
2022-11-29T09:17:40.375Z,22.92
2022-11-29T09:20:09.285Z,20.83
2022-11-29T09:22:35.786Z,20.80
2022-11-29T09:25:02.489Z,22.52
2022-11-29T09:27:28.998Z,22.48
2022-11-29T09:29:55.608Z,22.70
2022-11-29T09:32:22.106Z,24.05
2022-11-29T09:34:48.795Z,22.70
2022-11-29T09:37:16.632Z,22.02
2022-11-29T09:39:43.220Z,20.80
2022-11-29T09:42:23.877Z,21.95
2022-11-29T09:44:58.440Z,23.75
2022-11-29T09:47:36.829Z,20.13
2022-11-29T09:50:19.396Z,22.85
2022-11-29T09:52:54.069Z,21.20
2022-11-29T09:55:38.889Z,23.67
2022-11-29T09:58:10.396Z,21.25
2022-11-29T10:00:45.213Z,21.63
2022-11-29T10:03:17.403Z,20.48
2022-11-29T10:05:47.636Z,20.98
2022-11-29T10:08:21.756Z,20.15
2022-11-29T10:10:50.689Z,21.58
2022-11-29T10:13:22.430Z,20.13
2022-11-29T10:18:23.154Z,21.08
2022-11-29T10:20:52.234Z,21.85
2022-11-29T10:23:24.082Z,20.88
2022-11-29T10:25:53.324Z,24.98
2022-11-29T10:28:22.150Z,21.20
2022-11-29T10:30:49.237Z,20.92
2022-11-29T10:33:19.324Z,18.75
2022-11-29T10:35:47.158Z,18.17
2022-11-29T10:38:30.197Z,18.17
2022-11-29T10:41:05.667Z,17.60
2022-11-29T10:43:32.314Z,21.33
2022-11-29T10:45:59.123Z,18.55
2022-11-29T10:48:28.322Z,17.15
2022-11-29T10:50:54.889Z,16.85
2022-11-29T10:53:25.384Z,18.35
2022-11-29T10:55:58.957Z,17.35
2022-11-29T10:58:28.994Z,17.38
2022-11-29T11:00:58.184Z,18.00
2022-11-29T11:03:33.437Z,16.65
2022-11-29T11:06:04.082Z,15.68
2022-11-29T11:08:32.530Z,15.32
2022-11-29T11:11:01.760Z,17.45
2022-11-29T11:13:32.416Z,14.02
2022-11-29T11:16:14.347Z,15.10
2022-11-29T11:21:10.497Z,14.48
2022-11-29T11:23:45.790Z,13.23
2022-11-29T11:26:14.473Z,12.32
2022-11-29T11:28:49.086Z,13.80
2022-11-29T11:31:25.086Z,14.82
2022-11-29T11:33:51.776Z,14.23
2022-11-29T11:36:23.736Z,13.73
2022-11-29T11:38:52.035Z,12.30
2022-11-29T11:41:22.629Z,13.85
2022-11-29T11:43:57.256Z,12.52
2022-11-29T11:46:44.123Z,12.88
2022-11-29T11:49:12.693Z,13.52
2022-11-29T11:51:42.290Z,13.40
2022-11-29T11:54:14.528Z,13.90
2022-11-29T11:56:41.334Z,14.90
2022-11-29T11:59:17.894Z,14.23
2022-11-29T12:01:44.677Z,13.93
2022-11-29T12:04:15.544Z,15.73
2022-11-29T12:06:48.668Z,15.13
2022-11-29T12:09:24.989Z,12.88
2022-11-29T12:12:00.456Z,11.85
2022-11-29T12:14:36.689Z,12.43
2022-11-29T12:17:15.525Z,13.05
2022-11-29T12:19:59.034Z,13.50
2022-11-29T12:22:33.033Z,17.17
2022-11-29T12:25:05.275Z,15.90
2022-11-29T12:27:32.129Z,13.82
2022-11-29T12:30:00.209Z,14.45
2022-11-29T12:32:48.734Z,15.32
2022-11-29T12:35:49.382Z,14.45
2022-11-29T12:38:33.131Z,14.50
2022-11-29T12:41:11.502Z,14.30
2022-11-29T12:43:52.586Z,14.48
2022-11-29T12:46:24.293Z,14.83
2022-11-29T12:51:31.902Z,15.77
2022-11-29T12:54:14.670Z,17.67
2022-11-29T12:56:48.475Z,18.65
2022-11-29T12:59:25.368Z,19.08
2022-11-29T13:02:13.916Z,15.50
2022-11-29T13:04:46.098Z,18.02
2022-11-29T13:07:22.602Z,18.63
2022-11-29T13:10:02.832Z,18.02
2022-11-29T13:12:36.504Z,18.08
2022-11-29T13:15:06.823Z,17.45
2022-11-29T13:17:42.443Z,17.05
2022-11-29T13:20:30.684Z,18.23
2022-11-29T13:23:04.978Z,18.13
2022-11-29T13:25:36.915Z,17.38
2022-11-29T13:28:07.132Z,16.48
2022-11-29T13:30:34.861Z,18.25
2022-11-29T13:33:12.040Z,18.73
2022-11-29T13:35:45.801Z,17.65
2022-11-29T13:38:19.460Z,16.63
2022-11-29T13:40:56.610Z,16.60
2022-11-29T13:43:30.750Z,18.73
2022-11-29T13:46:06.424Z,20.30
2022-11-29T13:48:45.669Z,17.85
2022-11-29T13:51:30.509Z,17.10
2022-11-29T13:53:59.455Z,17.10
2022-11-29T13:56:32.856Z,17.38
2022-11-29T13:59:00.844Z,17.17
2022-11-29T14:01:28.422Z,15.60
2022-11-29T14:04:06.126Z,16.05
2022-11-29T14:06:34.807Z,16.58
2022-11-29T14:09:23.829Z,16.17
2022-11-29T14:11:58.229Z,16.10
2022-11-29T14:14:28.911Z,16.02
2022-11-29T14:16:59.329Z,16.75
2022-11-29T14:19:33.520Z,16.92
2022-11-29T14:22:17.290Z,19.02
2022-11-29T14:24:56.668Z,17.33
2022-11-29T14:27:46.304Z,17.65
2022-11-29T14:30:47.200Z,18.27
2022-11-29T14:33:58.385Z,17.88
2022-11-29T14:36:43.484Z,16.70
2022-11-29T14:39:31.031Z,15.82
2022-11-29T14:42:09.597Z,18.67
2022-11-29T14:44:44.251Z,17.30
2022-11-29T14:47:20.310Z,17.73
2022-11-29T14:49:47.069Z,19.30
2022-11-29T14:52:26.099Z,18.50
2022-11-29T14:54:57.284Z,17.85
2022-11-29T14:57:53.393Z,18.90
2022-11-29T15:00:21.606Z,17.90
2022-11-29T15:02:50.806Z,18.40
2022-11-29T15:05:20.502Z,18.70
2022-11-29T15:07:54.637Z,19.20
2022-11-29T15:10:25.450Z,19.48
2022-11-29T15:12:53.503Z,19.27
2022-11-29T15:15:36.389Z,18.30
2022-11-29T15:18:16.399Z,18.85
2022-11-29T15:21:07.285Z,21.02
2022-11-29T15:23:42.274Z,19.88
2022-11-29T15:26:17.554Z,20.25
2022-11-29T15:28:44.625Z,18.05
2022-11-29T15:31:14.721Z,19.88
2022-11-29T15:33:43.691Z,19.45
2022-11-29T15:36:15.967Z,18.77
2022-11-29T15:38:45.965Z,18.33
2022-11-29T15:41:19.651Z,18.75
2022-11-29T15:43:51.025Z,18.00
2022-11-29T15:46:24.357Z,18.50
2022-11-29T15:48:50.919Z,17.25
2022-11-29T15:51:24.682Z,18.65
2022-11-29T15:54:12.115Z,19.35
2022-11-29T15:56:45.097Z,19.20
2022-11-29T15:59:18.524Z,19.60
2022-11-29T16:01:48.106Z,18.08
2022-11-29T16:04:18.563Z,18.58
2022-11-29T16:06:46.958Z,18.92
2022-11-29T16:09:17.452Z,18.13
2022-11-29T16:11:45.184Z,17.60
2022-11-29T16:14:18.762Z,18.92
2022-11-29T16:16:47.677Z,18.90
2022-11-29T16:19:30.137Z,18.83
2022-11-29T16:22:21.910Z,21.83
2022-11-29T16:25:02.512Z,19.98
2022-11-29T16:27:31.909Z,19.85
2022-11-29T16:29:58.616Z,19.63
2022-11-29T16:32:28.867Z,20.42
2022-11-29T16:34:57.007Z,17.25
2022-11-29T16:37:25.669Z,17.30
2022-11-29T16:39:59.315Z,14.95
2022-11-29T16:42:27.438Z,15.05
2022-11-29T16:45:31.227Z,14.57
2022-11-29T16:47:57.923Z,15.80
2022-11-29T16:50:25.653Z,18.25
2022-11-29T16:52:56.552Z,18.15
2022-11-29T16:55:24.881Z,20.15
2022-11-29T16:57:51.418Z,18.77
2022-11-29T17:00:30.249Z,16.67
2022-11-29T17:02:57.023Z,16.33
2022-11-29T17:05:23.712Z,17.98
2022-11-29T17:07:53.340Z,12.68
2022-11-29T17:10:23.707Z,11.60
2022-11-29T17:12:51.646Z,12.95
2022-11-29T17:15:18.248Z,13.90
2022-11-29T17:17:44.890Z,12.98
2022-11-29T17:20:12.468Z,15.48
2022-11-29T17:22:38.977Z,17.38
2022-11-29T17:25:06.169Z,18.25
2022-11-29T17:27:32.742Z,18.40
2022-11-29T17:30:00.621Z,17.33
2022-11-29T17:32:27.332Z,18.10
2022-11-29T17:34:53.943Z,16.75
2022-11-29T17:37:20.463Z,17.67
2022-11-29T17:39:47.190Z,19.63
2022-11-29T17:42:13.837Z,21.42
2022-11-29T17:44:40.335Z,18.50
2022-11-29T17:47:08.214Z,15.55
2022-11-29T17:49:34.857Z,13.25
2022-11-29T17:52:01.450Z,16.60
2022-11-29T17:54:27.992Z,16.13
2022-11-29T17:56:55.048Z,17.65
2022-11-29T17:59:21.568Z,17.55
2022-11-29T18:01:48.183Z,17.92
2022-11-29T18:04:16.177Z,19.38
2022-11-29T18:06:42.693Z,22.60
2022-11-29T18:09:10.520Z,15.57
2022-11-29T18:11:47.104Z,15.35
2022-11-29T18:14:16.222Z,15.95
2022-11-29T18:16:43.112Z,14.93
2022-11-29T18:19:13.220Z,15.13
2022-11-29T18:21:41.318Z,17.38
2022-11-29T18:24:08.986Z,18.15
2022-11-29T18:26:36.527Z,17.17
2022-11-29T18:29:03.733Z,18.60
2022-11-29T18:31:32.370Z,15.75
2022-11-29T18:34:00.395Z,13.00
2022-11-29T18:36:28.672Z,15.80
2022-11-29T18:38:58.215Z,14.80
2022-11-29T18:41:25.383Z,15.10
2022-11-29T18:43:56.946Z,12.85
2022-11-29T18:46:23.764Z,13.05
2022-11-29T18:48:50.338Z,14.80
2022-11-29T18:51:18.708Z,14.63
2022-11-29T18:53:45.982Z,17.85
2022-11-29T18:56:16.314Z,17.75
2022-11-29T18:58:43.766Z,17.70
2022-11-29T19:01:12.628Z,23.38
2022-11-29T19:03:41.251Z,21.00
2022-11-29T19:06:10.043Z,21.23
2022-11-29T19:08:37.797Z,18.02
2022-11-29T19:11:05.228Z,17.50
2022-11-29T19:13:33.774Z,18.27
2022-11-29T19:16:01.369Z,15.82
2022-11-29T19:18:28.356Z,16.60
2022-11-29T19:21:03.605Z,17.05
2022-11-29T19:23:30.287Z,18.08
2022-11-29T19:26:01.754Z,20.45
2022-11-29T19:28:28.397Z,18.10
2022-11-29T19:30:56.471Z,23.85
2022-11-29T19:33:23.152Z,28.42
2022-11-29T19:35:49.721Z,27.05
2022-11-29T19:38:16.521Z,22.13
2022-11-29T19:40:43.375Z,27.20
2022-11-29T19:43:10.015Z,29.17
2022-11-29T19:45:38.734Z,21.95
2022-11-29T19:48:06.891Z,20.08
2022-11-29T19:50:33.427Z,16.90
2022-11-29T19:53:00.022Z,18.42
2022-11-29T19:55:26.536Z,19.25
2022-11-29T19:57:55.352Z,21.23
2022-11-29T20:00:22.371Z,21.00
2022-11-29T20:02:49.013Z,20.65
2022-11-29T20:05:17.164Z,22.83
2022-11-29T20:07:43.792Z,22.98
2022-11-29T20:10:11.152Z,21.20
2022-11-29T20:12:37.780Z,23.30
2022-11-29T20:15:05.320Z,26.20
2022-11-29T20:17:31.892Z,24.17
2022-11-29T20:19:58.446Z,23.48
2022-11-29T20:22:26.420Z,23.42
2022-11-29T20:24:52.951Z,21.30
2022-11-29T20:27:19.558Z,22.90
2022-11-29T20:29:46.343Z,21.95
2022-11-29T20:32:13.194Z,21.30
2022-11-29T20:34:40.771Z,20.55
2022-11-29T20:37:29.876Z,18.50
2022-11-29T20:39:59.950Z,20.45
2022-11-29T20:42:46.504Z,20.45
2022-11-29T20:45:15.098Z,17.40
2022-11-29T20:47:49.473Z,17.80
2022-11-29T20:50:21.736Z,18.80
2022-11-29T20:53:04.951Z,17.73
2022-11-29T20:55:31.757Z,18.55
2022-11-29T20:57:58.277Z,18.75
2022-11-29T21:00:24.949Z,19.15
2022-11-29T21:02:51.505Z,18.75
2022-11-29T21:05:18.683Z,19.48
2022-11-29T21:07:45.281Z,17.33
2022-11-29T21:10:14.045Z,17.77
2022-11-29T21:12:41.262Z,18.88
2022-11-29T21:15:09.931Z,19.30
2022-11-29T21:17:37.075Z,19.45
2022-11-29T21:20:04.674Z,18.65
2022-11-29T21:22:40.817Z,21.30
2022-11-29T21:25:15.368Z,19.40
2022-11-29T21:27:42.421Z,18.80
2022-11-29T21:30:17.463Z,21.23
2022-11-29T21:32:44.783Z,23.95
2022-11-29T21:35:11.440Z,23.38
2022-11-29T21:37:38.305Z,21.50
2022-11-29T21:40:06.302Z,19.15
2022-11-29T21:42:34.260Z,17.85
2022-11-29T21:45:00.766Z,16.98
2022-11-29T21:47:27.371Z,16.05
2022-11-29T21:49:54.684Z,16.80
2022-11-29T21:52:22.982Z,17.40
2022-11-29T21:54:49.944Z,18.05
2022-11-29T21:57:16.694Z,18.30
2022-11-29T21:59:44.725Z,17.88
2022-11-29T22:02:11.446Z,17.70
2022-11-29T22:04:38.068Z,18.42
2022-11-29T22:07:04.689Z,17.92
2022-11-29T22:09:31.204Z,18.27
2022-11-29T22:11:57.802Z,18.25
2022-11-29T22:14:24.439Z,18.92
2022-11-29T22:16:54.080Z,16.92
2022-11-29T22:19:23.000Z,20.70
2022-11-29T22:21:51.401Z,25.40
2022-11-29T22:24:20.563Z,23.45
2022-11-29T22:26:47.602Z,21.13
2022-11-29T22:29:14.791Z,20.13
2022-11-29T22:31:42.222Z,21.75
2022-11-29T22:34:11.109Z,22.75
2022-11-29T22:36:38.385Z,23.20
2022-11-29T22:39:06.017Z,20.75
2022-11-29T22:41:33.653Z,25.55
2022-11-29T22:44:00.315Z,23.13
2022-11-29T22:46:28.047Z,20.88
2022-11-29T22:48:56.596Z,18.88
2022-11-29T22:51:26.685Z,19.02
2022-11-29T22:53:55.017Z,20.17
2022-11-29T22:56:22.526Z,22.80
2022-11-29T22:58:49.076Z,19.38
2022-11-29T23:01:17.519Z,21.85
2022-11-29T23:03:46.206Z,20.85
2022-11-29T23:06:14.280Z,22.48
2022-11-29T23:08:43.582Z,21.00
2022-11-29T23:11:12.010Z,20.73
2022-11-29T23:13:41.399Z,22.50
2022-11-29T23:16:09.912Z,20.83
2022-11-29T23:18:37.005Z,21.58
2022-11-29T23:21:06.240Z,21.55
2022-11-29T23:23:32.855Z,26.10
2022-11-29T23:26:01.398Z,23.35
2022-11-29T23:28:28.775Z,22.27
2022-11-29T23:30:55.604Z,22.35
2022-11-29T23:33:22.813Z,22.65
2022-11-29T23:35:49.610Z,23.08
2022-11-29T23:38:17.374Z,26.38
2022-11-29T23:40:44.276Z,22.98
2022-11-29T23:43:12.132Z,22.50
2022-11-29T23:45:39.238Z,21.15
2022-11-29T23:48:06.074Z,19.92
2022-11-29T23:50:32.633Z,21.90
2022-11-29T23:52:59.330Z,16.73
2022-11-29T23:55:26.274Z,20.23
2022-11-29T23:57:52.845Z,17.92
